»·PEaware :: N4436E KGRR-KERI

N4436E :: KGRR-KERI

FLIGHT INFORMATION

Flight Status: Arrived
Operator: Privately registered:
United States
More flights under this callsign
Pilot: Friedhelm S. (2894)
Aircraft: CESSNA 172 SKYHAWK
(C172)
More flights by this aircraft type
Origin: KGRR Gerald R. Ford Intl
United States
Destination: KERI Erie Intl
United States
More flights between these airports :: More routes between these airports
Route:
File this flight plan on PilotEdge
Remarks:
Altitude:
(Current/Filed)
5,500ft
Speed:
(Current/Filed)
100kts
Departed: 01-Aug-20 04:25 AM
Arrived: 01-Aug-20 06:34 AM
Distance/Time
Traveled:
241nm/2:09
Distance/Time
To Go:
Arrived

Flight Plot

Page will automatically refresh every two minutes.


Map Options




Map Legend


Flown Route
Filed Route
Departure Airport
Arrival Airport
Navaid (VOR, NDB)
Fix

Horizontal Profiles

Position Reports

Time Latitude Longitude Heading Altitude Ground
Speed
01-Aug-20 04:15 42.888103 -85.524246 350 786ft 0kts
01-Aug-20 04:16 42.888103 -85.524246 350 786ft 0kts
01-Aug-20 04:17 42.888103 -85.524246 350 786ft 0kts
01-Aug-20 04:18 42.888103 -85.524246 350 786ft 0kts
01-Aug-20 04:19 42.888103 -85.524246 350 786ft 0kts
01-Aug-20 04:20 42.889813 -85.522781 326 781ft 13kts
01-Aug-20 04:21 42.889265 -85.528951 260 797ft 20kts
01-Aug-20 04:22 42.888316 -85.537383 261 799ft 26kts
01-Aug-20 04:23 42.888589 -85.540091 1 793ft 13kts
01-Aug-20 04:24 42.890047 -85.528479 80 1031ft 73kts
01-Aug-20 04:25 42.889019 -85.500326 111 1861ft 89kts
01-Aug-20 04:26 42.879639 -85.470263 112 2755ft 89kts
01-Aug-20 04:27 42.872702 -85.437453 101 3514ft 95kts
01-Aug-20 04:28 42.867339 -85.402980 102 4269ft 94kts
01-Aug-20 04:29 42.862945 -85.367641 97 4956ft 95kts
01-Aug-20 04:30 42.859379 -85.330721 96 5413ft 109kts
01-Aug-20 04:31 42.857595 -85.290880 95 5511ft 104kts
01-Aug-20 04:32 42.854158 -85.250479 100 5512ft 108kts
01-Aug-20 04:33 42.849544 -85.209755 100 5515ft 109kts
01-Aug-20 04:34 42.844901 -85.168856 100 5517ft 109kts
01-Aug-20 04:35 42.839011 -85.127166 99 5510ft 114kts
01-Aug-20 04:36 42.832573 -85.084421 99 5509ft 116kts
01-Aug-20 04:37 42.826178 -85.041215 99 5507ft 116kts
01-Aug-20 04:38 42.819873 -84.997758 99 5505ft 117kts
01-Aug-20 04:39 42.813671 -84.954005 99 5504ft 117kts
01-Aug-20 04:40 42.807668 -84.910252 96 5503ft 117kts
01-Aug-20 04:41 42.805223 -84.865792 92 5502ft 117kts
01-Aug-20 04:42 42.802929 -84.821343 92 5501ft 117kts
01-Aug-20 04:43 42.800655 -84.776970 92 5501ft 117kts
01-Aug-20 04:44 42.798399 -84.732597 92 5501ft 117kts
01-Aug-20 04:45 42.796154 -84.688095 92 5499ft 117kts
01-Aug-20 04:46 42.793928 -84.643593 92 5499ft 117kts
01-Aug-20 04:47 42.791718 -84.599085 92 5500ft 117kts
01-Aug-20 04:48 42.789530 -84.554682 92 5501ft 117kts
01-Aug-20 04:49 42.787354 -84.510135 92 5502ft 117kts
01-Aug-20 04:50 42.785202 -84.465737 92 5503ft 117kts
01-Aug-20 04:51 42.780757 -84.421524 96 5505ft 118kts
01-Aug-20 04:52 42.775887 -84.377255 96 5507ft 118kts
01-Aug-20 04:53 42.771050 -84.333085 97 5507ft 118kts
01-Aug-20 04:54 42.766233 -84.288857 97 5504ft 118kts
01-Aug-20 04:55 42.761435 -84.244647 97 5502ft 118kts
01-Aug-20 04:56 42.756637 -84.200411 97 5499ft 118kts
01-Aug-20 04:57 42.751787 -84.156028 97 5496ft 118kts
01-Aug-20 04:58 42.746907 -84.111648 97 5494ft 118kts
01-Aug-20 04:59 42.741979 -84.067143 97 5491ft 119kts
01-Aug-20 05:00 42.736991 -84.022420 97 5489ft 119kts
01-Aug-20 05:01 42.731962 -83.977679 97 5488ft 119kts
01-Aug-20 05:02 42.726856 -83.933443 96 5543ft 117kts
01-Aug-20 05:03 42.721035 -83.888776 100 5486ft 121kts
01-Aug-20 05:04 42.713420 -83.845028 102 5513ft 114kts
01-Aug-20 05:05 42.705935 -83.802424 102 5495ft 117kts
01-Aug-20 05:06 42.698808 -83.759595 100 5500ft 116kts
01-Aug-20 05:07 42.692825 -83.716497 97 5514ft 115kts
01-Aug-20 05:08 42.687964 -83.673000 96 5484ft 116kts
01-Aug-20 05:09 42.683801 -83.629656 93 5492ft 114kts
01-Aug-20 05:10 42.680641 -83.586855 94 5511ft 114kts
01-Aug-20 05:11 42.677350 -83.543576 94 5489ft 114kts
01-Aug-20 05:12 42.674069 -83.500854 94 5490ft 113kts
01-Aug-20 05:13 42.670831 -83.458452 94 5491ft 113kts
01-Aug-20 05:14 42.666634 -83.415996 96 5493ft 113kts
01-Aug-20 05:15 42.658525 -83.374493 104 5495ft 113kts
01-Aug-20 05:16 42.649969 -83.333125 105 5496ft 113kts
01-Aug-20 05:17 42.641381 -83.291819 104 5493ft 114kts
01-Aug-20 05:18 42.632680 -83.250315 104 5491ft 114kts
01-Aug-20 05:19 42.623911 -83.208830 104 5488ft 114kts
01-Aug-20 05:20 42.615068 -83.167304 104 5487ft 114kts
01-Aug-20 05:21 42.606123 -83.125495 104 5507ft 116kts
01-Aug-20 05:22 42.597007 -83.083003 104 5506ft 117kts
01-Aug-20 05:23 42.587794 -83.040164 104 5505ft 118kts
01-Aug-20 05:24 42.578591 -82.997372 104 5504ft 118kts
01-Aug-20 05:25 42.569366 -82.954354 104 5504ft 119kts
01-Aug-20 05:26 42.560135 -82.911135 104 5504ft 119kts
01-Aug-20 05:27 42.551796 -82.867340 102 5505ft 120kts
01-Aug-20 05:28 42.543602 -82.823293 102 5506ft 120kts
01-Aug-20 05:29 42.535456 -82.779387 102 5508ft 121kts
01-Aug-20 05:30 42.527256 -82.735130 102 5510ft 121kts
01-Aug-20 05:31 42.519045 -82.690739 102 5513ft 121kts
01-Aug-20 05:32 42.510883 -82.646475 102 5516ft 121kts
01-Aug-20 05:33 42.502736 -82.602095 102 5520ft 121kts
01-Aug-20 05:34 42.494618 -82.557595 101 5524ft 121kts
01-Aug-20 05:35 42.486485 -82.513294 101 5529ft 121kts
01-Aug-20 05:36 42.478212 -82.469071 101 5534ft 120kts
01-Aug-20 05:38 42.469871 -82.425159 101 5538ft 119kts
01-Aug-20 05:39 42.461520 -82.381705 101 5543ft 119kts
01-Aug-20 05:40 42.453114 -82.338307 102 5545ft 118kts
01-Aug-20 05:41 42.444763 -82.295330 102 5544ft 117kts
01-Aug-20 05:42 42.436522 -82.252945 102 5568ft 118kts
01-Aug-20 05:43 42.427977 -82.208702 102 5464ft 120kts
01-Aug-20 05:44 42.419592 -82.165381 102 5462ft 118kts
01-Aug-20 05:45 42.411282 -82.122415 102 5434ft 120kts
01-Aug-20 05:46 42.403007 -82.079600 102 5475ft 115kts
01-Aug-20 05:47 42.394785 -82.036998 101 5477ft 117kts
01-Aug-20 05:48 42.386108 -81.994372 103 5478ft 117kts
01-Aug-20 05:49 42.376820 -81.951896 103 5480ft 117kts
01-Aug-20 05:50 42.367515 -81.909274 103 5482ft 118kts
01-Aug-20 05:51 42.358263 -81.866832 103 5484ft 118kts
01-Aug-20 05:52 42.349006 -81.824295 103 5486ft 118kts
01-Aug-20 05:53 42.339751 -81.781702 103 5489ft 118kts
01-Aug-20 05:53 42.332059 -81.746230 103 5491ft 118kts
01-Aug-20 05:55 42.321339 -81.696721 103 5495ft 118kts
01-Aug-20 05:56 42.312141 -81.654162 103 5498ft 118kts
01-Aug-20 05:56 42.304487 -81.618701 103 5501ft 118kts
01-Aug-20 05:58 42.293796 -81.569056 103 5506ft 118kts
01-Aug-20 05:58 42.287723 -81.543453 105 5509ft 118kts
01-Aug-20 06:00 42.275988 -81.494270 105 5514ft 118kts
01-Aug-20 06:00 42.267686 -81.459003 105 5518ft 118kts
01-Aug-20 06:01 42.257857 -81.416595 105 5523ft 118kts
01-Aug-20 06:02 42.248209 -81.374121 105 5528ft 118kts
01-Aug-20 06:03 42.238742 -81.331566 105 5531ft 118kts
01-Aug-20 06:04 42.229353 -81.289017 105 5531ft 118kts
01-Aug-20 06:05 42.219985 -81.246499 105 5531ft 118kts
01-Aug-20 06:06 42.210706 -81.204327 105 5552ft 118kts
01-Aug-20 06:07 42.201391 -81.161899 105 5553ft 118kts
01-Aug-20 06:08 42.192049 -81.119283 105 5550ft 118kts
01-Aug-20 06:09 42.182627 -81.076786 105 5552ft 118kts
01-Aug-20 06:10 42.173005 -81.034545 105 5555ft 117kts
01-Aug-20 06:11 42.163213 -80.992553 105 5553ft 117kts
01-Aug-20 06:12 42.153612 -80.950835 105 5546ft 113kts
01-Aug-20 06:13 42.146846 -80.910547 105 5538ft 108kts
01-Aug-20 06:14 42.140510 -80.870805 105 5533ft 108kts
01-Aug-20 06:15 42.134256 -80.830901 105 5528ft 108kts
01-Aug-20 06:16 42.128009 -80.790964 104 5523ft 108kts
01-Aug-20 06:17 42.122110 -80.751007 103 5517ft 109kts
01-Aug-20 06:18 42.116110 -80.710922 107 5511ft 108kts
01-Aug-20 06:19 42.108501 -80.671600 107 5506ft 108kts
01-Aug-20 06:20 42.100884 -80.632227 107 5500ft 108kts
01-Aug-20 06:21 42.093130 -80.593012 107 5494ft 108kts
01-Aug-20 06:22 42.084511 -80.554009 107 5488ft 111kts
01-Aug-20 06:23 42.073561 -80.514171 107 5495ft 115kts
01-Aug-20 06:24 42.062696 -80.473492 107 5501ft 115kts
01-Aug-20 06:25 42.052102 -80.432299 106 5392ft 120kts
01-Aug-20 06:26 42.043747 -80.390166 104 4863ft 115kts
01-Aug-20 06:27 42.032986 -80.349394 112 4257ft 115kts
01-Aug-20 06:28 42.019943 -80.310092 116 3659ft 114kts
01-Aug-20 06:29 42.029209 -80.272956 46 2767ft 112kts
01-Aug-20 06:30 42.047181 -80.239056 48 1871ft 98kts
01-Aug-20 06:31 42.061404 -80.212759 52 1320ft 73kts
01-Aug-20 06:32 42.072925 -80.191413 53 957ft 72kts
01-Aug-20 06:33 42.080844 -80.178069 281 735ft 10kts
01-Aug-20 06:34 42.080934 -80.182993 268 735ft 11kts
01-Aug-20 06:35 42.081009 -80.185534 44 732ft 0kts
01-Aug-20 06:36 42.081009 -80.185534 44 732ft 0kts

Navigation Log

Ident Type
Flight plan parsing failed, navigation log unavailable